createdAt,value
2018-09-06T00:02:04.007Z,27.40
2018-09-06T00:04:32.959Z,27.60
2018-09-06T00:07:01.891Z,28.30
2018-09-06T00:09:30.547Z,28.80
2018-09-06T00:11:59.223Z,29.00
2018-09-06T00:14:27.599Z,32.20
2018-09-06T00:16:56.347Z,32.70
2018-09-06T00:19:24.718Z,33.90
2018-09-06T00:21:53.350Z,33.90
2018-09-06T00:24:22.035Z,31.80
2018-09-06T00:26:50.643Z,30.80
2018-09-06T00:29:19.023Z,32.20
2018-09-06T00:31:47.419Z,42.40
2018-09-06T00:34:16.487Z,42.80
2018-09-06T00:36:45.976Z,41.10
2018-09-06T00:39:14.375Z,41.50
2018-09-06T00:41:42.835Z,43.10
2018-09-06T00:44:11.527Z,42.20
2018-09-06T00:46:41.244Z,45.20
2018-09-06T00:49:09.657Z,50.70
2018-09-06T00:51:38.018Z,48.00
2018-09-06T00:54:06.803Z,51.40
2018-09-06T00:56:35.250Z,49.90
2018-09-06T00:59:03.719Z,51.20
2018-09-06T01:01:32.550Z,57.80
2018-09-06T01:04:01.367Z,56.60
2018-09-06T01:06:30.358Z,58.30
2018-09-06T01:08:58.731Z,59.80
2018-09-06T01:11:27.143Z,62.70
2018-09-06T01:13:56.082Z,67.00
2018-09-06T01:16:24.786Z,76.60
2018-09-06T01:18:53.162Z,70.00
2018-09-06T01:21:21.550Z,75.90
2018-09-06T01:23:50.596Z,87.90
2018-09-06T01:26:18.975Z,78.60
2018-09-06T01:36:17.602Z,84.80
2018-09-06T01:38:45.950Z,74.30
2018-09-06T01:41:14.686Z,80.10
2018-09-06T01:43:43.395Z,68.60
2018-09-06T01:46:12.024Z,70.40
2018-09-06T01:48:40.418Z,73.40
2018-09-06T01:51:08.796Z,74.40
2018-09-06T01:53:38.091Z,75.00
2018-09-06T02:03:31.225Z,76.80
2018-09-06T02:05:59.599Z,82.10
2018-09-06T02:08:27.966Z,81.00
2018-09-06T02:10:56.875Z,81.50
2018-09-06T02:15:54.079Z,83.80
2018-09-06T02:18:22.690Z,81.90
2018-09-06T02:20:51.385Z,86.90
2018-09-06T02:25:48.337Z,83.80
2018-09-06T02:28:16.711Z,80.30
2018-09-06T02:33:14.461Z,86.80
2018-09-06T02:35:42.839Z,84.70
2018-09-06T02:38:12.271Z,91.10
2018-09-06T02:40:41.166Z,81.80
2018-09-06T02:48:10.295Z,79.50
2018-09-06T02:53:13.042Z,83.00
2018-09-06T02:55:41.639Z,86.70
2018-09-06T03:00:41.563Z,97.20
2018-09-06T03:03:09.930Z,95.30
2018-09-06T03:05:38.315Z,93.90
2018-09-06T03:08:06.690Z,91.90
2018-09-06T03:13:10.402Z,88.40
2018-09-06T03:20:36.390Z,88.60
2018-09-06T03:23:05.542Z,93.40
2018-09-06T03:25:34.631Z,96.50
2018-09-06T03:28:03.804Z,94.60
2018-09-06T03:37:57.492Z,91.60
2018-09-06T03:40:26.263Z,89.30
2018-09-06T03:42:55.202Z,88.30
2018-09-06T04:02:43.433Z,91.20
2018-09-06T04:12:37.007Z,91.40
2018-09-06T04:17:35.668Z,86.60
2018-09-06T04:20:04.640Z,85.40
2018-09-06T04:22:33.450Z,90.60
2018-09-06T04:25:03.318Z,82.90
2018-09-06T04:27:32.306Z,82.50
2018-09-06T04:30:00.878Z,91.30
2018-09-06T04:32:30.438Z,91.40
2018-09-06T04:34:59.751Z,86.40
2018-09-06T04:37:29.150Z,85.30
2018-09-06T04:39:57.753Z,83.40
2018-09-06T04:42:26.747Z,83.70
2018-09-06T04:44:56.423Z,83.30
2018-09-06T04:47:25.671Z,90.20
2018-09-06T04:49:54.359Z,86.90
2018-09-06T04:52:23.730Z,87.40
2018-09-06T04:59:48.566Z,93.40
2018-09-06T05:02:17.235Z,91.90
2018-09-06T05:04:45.967Z,91.40
2018-09-06T05:07:14.331Z,91.90
2018-09-06T05:09:43.226Z,92.40
2018-09-06T05:12:11.599Z,87.50
2018-09-06T05:17:08.568Z,79.10
2018-09-06T05:27:01.742Z,34.00
2018-09-06T05:29:30.107Z,17.30
2018-09-06T05:31:58.506Z,1.00
2018-09-06T05:34:26.939Z,1.00
2018-09-06T05:36:55.574Z,1.00
2018-09-06T05:39:23.963Z,1.00
2018-09-06T05:41:52.658Z,1.00
2018-09-06T05:44:21.029Z,1.00
2018-09-06T05:46:49.434Z,1.00
2018-09-06T05:49:18.111Z,1.00
2018-09-06T05:51:46.474Z,1.00
2018-09-06T05:54:15.136Z,99.90
2018-09-06T05:56:43.753Z,1.00
2018-09-06T05:59:12.439Z,99.90
2018-09-06T06:01:41.143Z,1.00
2018-09-06T06:04:09.531Z,1.00
2018-09-06T06:06:38.134Z,99.90
2018-09-06T06:09:08.127Z,18.20
2018-09-06T06:11:36.831Z,1.00
2018-09-06T06:14:05.578Z,99.90
2018-09-06T06:16:34.243Z,99.90
2018-09-06T06:21:31.073Z,1.00
2018-09-06T06:23:59.454Z,99.90
2018-09-06T06:26:28.686Z,99.90
2018-09-06T06:28:57.066Z,1.00
2018-09-06T06:31:25.723Z,1.00
2018-09-06T06:36:22.970Z,1.00
2018-09-06T06:41:20.658Z,1.00
2018-09-06T06:51:13.302Z,1.00
2018-09-06T06:53:41.926Z,1.00
2018-09-06T06:56:10.306Z,1.00
2018-09-06T06:58:38.761Z,1.00
2018-09-06T07:01:07.082Z,1.00
2018-09-06T07:03:35.435Z,1.00
2018-09-06T07:18:25.501Z,99.90
2018-09-06T07:20:53.759Z,99.90
2018-09-06T07:23:22.439Z,1.00
2018-09-06T07:25:50.795Z,1.00
2018-09-06T07:28:19.503Z,99.90
2018-09-06T07:30:48.833Z,1.00
2018-09-06T07:33:17.239Z,1.00
2018-09-06T07:35:45.663Z,99.90
2018-09-06T07:38:14.026Z,99.90
2018-09-06T07:40:42.964Z,99.90
2018-09-06T07:43:11.643Z,58.40
2018-09-06T07:45:40.326Z,1.00
2018-09-06T07:48:09.016Z,1.00
2018-09-06T07:50:37.719Z,99.90
2018-09-06T07:53:06.387Z,99.90
2018-09-06T07:58:03.102Z,1.00
2018-09-06T08:00:32.030Z,1.00
2018-09-06T08:03:00.519Z,99.90
2018-09-06T08:05:29.850Z,99.90
2018-09-06T08:07:58.527Z,99.90
2018-09-06T08:10:26.955Z,99.90
2018-09-06T08:12:55.668Z,99.90
2018-09-06T08:15:24.117Z,99.90
2018-09-06T08:17:52.778Z,99.90
2018-09-06T08:20:21.171Z,99.90
2018-09-06T08:22:49.559Z,99.90
2018-09-06T08:25:17.939Z,99.90
2018-09-06T08:27:46.306Z,99.90
2018-09-06T08:30:15.031Z,99.90
2018-09-06T08:32:43.979Z,99.90
2018-09-06T08:35:12.414Z,99.90
2018-09-06T08:37:41.096Z,99.90
2018-09-06T08:40:09.767Z,99.90
2018-09-06T08:42:38.642Z,99.90
2018-09-06T08:45:07.322Z,99.90
2018-09-06T08:47:35.695Z,99.90
2018-09-06T08:50:04.374Z,69.20
2018-09-06T08:52:32.872Z,57.10
2018-09-06T08:55:01.151Z,94.20
2018-09-06T08:57:30.053Z,99.90
2018-09-06T08:59:58.962Z,99.90
2018-09-06T09:02:27.377Z,99.90
2018-09-06T09:04:55.759Z,99.90
2018-09-06T09:09:52.446Z,1.00
2018-09-06T09:12:20.848Z,99.90
2018-09-06T09:14:49.463Z,99.90
2018-09-06T09:17:17.846Z,1.00
2018-09-06T09:19:46.551Z,1.00
2018-09-06T09:22:15.128Z,1.00
2018-09-06T09:24:43.939Z,1.00
2018-09-06T09:27:13.559Z,1.00
2018-09-06T09:29:41.918Z,1.00
2018-09-06T09:32:11.006Z,1.00
2018-09-06T09:34:39.430Z,1.00
2018-09-06T09:37:07.843Z,1.00
2018-09-06T09:39:36.213Z,1.00
2018-09-06T09:42:04.588Z,1.00
2018-09-06T09:44:33.766Z,1.00
2018-09-06T09:49:30.099Z,1.00
2018-09-06T09:51:58.720Z,1.00
2018-09-06T09:54:27.566Z,1.00
2018-09-06T09:56:56.259Z,1.00
2018-09-06T09:59:24.694Z,1.00
2018-09-06T10:01:58.323Z,1.00
2018-09-06T10:04:32.578Z,1.00
2018-09-06T10:07:06.386Z,1.00
2018-09-06T10:09:34.824Z,99.90
2018-09-06T10:12:03.227Z,99.90
2018-09-06T10:14:31.867Z,99.90
2018-09-06T10:17:01.483Z,1.00
2018-09-06T10:19:30.523Z,1.00
2018-09-06T10:21:58.971Z,1.00
2018-09-06T10:24:27.639Z,99.90
2018-09-06T10:26:56.086Z,1.00
2018-09-06T10:34:20.919Z,1.00
2018-09-06T10:36:49.297Z,1.00
2018-09-06T10:39:18.051Z,99.90
2018-09-06T10:41:47.183Z,1.00
2018-09-06T10:44:15.590Z,1.00
2018-09-06T10:46:44.218Z,1.00
2018-09-06T10:49:12.575Z,1.00
2018-09-06T10:51:40.942Z,1.00
2018-09-06T10:54:09.624Z,1.00
2018-09-06T10:56:38.018Z,1.00
2018-09-06T10:59:06.479Z,99.90
2018-09-06T11:01:35.101Z,99.90
2018-09-06T11:04:03.742Z,99.90
2018-09-06T11:06:32.233Z,99.90
2018-09-06T11:09:00.642Z,1.00
2018-09-06T11:11:29.076Z,99.90
2018-09-06T11:13:57.730Z,99.90
2018-09-06T11:16:26.410Z,99.90
2018-09-06T11:18:54.810Z,99.90
2018-09-06T11:21:24.036Z,99.90
2018-09-06T11:23:52.638Z,99.90
2018-09-06T11:33:46.062Z,99.90
2018-09-06T11:38:43.110Z,99.90
2018-09-06T11:41:11.575Z,99.90
2018-09-06T11:43:40.158Z,99.90
2018-09-06T11:56:08.108Z,1.00
2018-09-06T12:01:05.262Z,99.90
2018-09-06T12:03:33.687Z,99.90
2018-09-06T12:06:02.094Z,99.90
2018-09-06T12:08:31.043Z,93.00
2018-09-06T12:10:59.819Z,93.20
2018-09-06T12:18:25.023Z,1.00
2018-09-06T12:25:50.759Z,1.00
2018-09-06T12:28:19.971Z,99.90
2018-09-06T12:33:16.872Z,99.90
2018-09-06T12:35:45.839Z,99.90
2018-09-06T12:38:14.546Z,99.90
2018-09-06T12:40:43.819Z,99.90
2018-09-06T12:43:12.631Z,1.00
2018-09-06T12:45:41.366Z,1.00
2018-09-06T12:48:09.764Z,1.00
2018-09-06T12:50:38.155Z,99.90
2018-09-06T12:53:06.586Z,99.90
2018-09-06T12:55:35.324Z,99.90
2018-09-06T12:58:03.706Z,99.90
2018-09-06T13:00:32.059Z,99.90
2018-09-06T13:05:28.835Z,99.90
2018-09-06T13:07:57.737Z,99.90
2018-09-06T13:10:26.402Z,1.00
2018-09-06T13:12:54.802Z,1.00
2018-09-06T13:15:23.418Z,1.00
2018-09-06T13:17:51.841Z,1.00
2018-09-06T13:20:20.456Z,1.00
2018-09-06T13:22:49.322Z,1.00
2018-09-06T13:25:17.971Z,1.00
2018-09-06T13:27:46.918Z,1.00
2018-09-06T13:30:15.831Z,1.00
2018-09-06T13:32:44.170Z,1.00
2018-09-06T13:35:12.803Z,1.00
2018-09-06T13:37:41.175Z,99.90
2018-09-06T13:40:09.523Z,1.00
2018-09-06T13:45:06.870Z,69.50
2018-09-06T13:47:35.234Z,29.10
2018-09-06T13:50:03.907Z,1.00
2018-09-06T13:52:32.275Z,1.00
2018-09-06T13:55:01.818Z,53.80
2018-09-06T13:57:30.473Z,45.70
2018-09-06T13:59:59.619Z,1.00
2018-09-06T14:02:28.194Z,1.00
2018-09-06T14:04:56.944Z,1.00
2018-09-06T14:07:25.866Z,1.00
2018-09-06T14:12:22.399Z,1.00
2018-09-06T14:14:50.782Z,1.00
2018-09-06T14:19:48.578Z,1.00
2018-09-06T14:22:16.979Z,99.90
2018-09-06T14:27:13.616Z,1.00
2018-09-06T14:29:42.591Z,99.90
2018-09-06T14:32:11.507Z,99.90
2018-09-06T14:34:40.015Z,99.90
2018-09-06T14:37:08.610Z,99.90
2018-09-06T14:39:37.232Z,99.90
2018-09-06T14:42:05.751Z,1.00
2018-09-06T14:44:34.435Z,1.00
2018-09-06T14:47:03.319Z,1.00
2018-09-06T14:49:31.710Z,1.00
2018-09-06T14:52:00.590Z,1.00
2018-09-06T14:54:28.970Z,1.00
2018-09-06T14:56:57.394Z,99.90
2018-09-06T14:59:26.163Z,1.00
2018-09-06T15:01:54.565Z,1.00
2018-09-06T15:06:51.031Z,1.00
2018-09-06T15:09:20.551Z,99.90
2018-09-06T15:11:48.904Z,91.70
2018-09-06T15:14:17.278Z,1.00
2018-09-06T15:16:45.995Z,1.00
2018-09-06T15:21:42.912Z,1.00
2018-09-06T15:26:42.467Z,65.40
2018-09-06T15:29:11.346Z,65.10
2018-09-06T15:31:39.731Z,90.20
2018-09-06T15:34:08.118Z,78.70
2018-09-06T15:36:36.554Z,74.50
2018-09-06T15:39:07.386Z,22.70
2018-09-06T15:41:35.834Z,1.00
2018-09-06T15:44:04.285Z,45.30
2018-09-06T15:46:32.679Z,67.20
2018-09-06T15:51:29.411Z,80.00
2018-09-06T15:53:57.780Z,78.30
2018-09-06T15:56:26.156Z,84.10
2018-09-06T15:58:54.539Z,78.90
2018-09-06T16:01:22.926Z,82.60
2018-09-06T16:03:51.640Z,85.30
2018-09-06T16:06:20.030Z,1.00
2018-09-06T16:08:48.403Z,1.00
2018-09-06T16:11:17.335Z,1.00
2018-09-06T16:13:46.002Z,1.00
2018-09-06T16:16:15.040Z,19.10
2018-09-06T16:18:44.006Z,49.70
2018-09-06T16:21:12.937Z,58.90
2018-09-06T16:23:41.939Z,53.30
2018-09-06T16:26:10.969Z,80.80
2018-09-06T16:28:39.338Z,91.50
2018-09-06T16:36:03.891Z,96.60
2018-09-06T16:38:33.305Z,95.90
2018-09-06T16:41:02.515Z,96.20
2018-09-06T16:43:30.899Z,98.20
2018-09-06T16:45:59.545Z,98.80
2018-09-06T16:48:28.578Z,98.40
2018-09-06T16:50:57.074Z,99.20
2018-09-06T16:53:26.048Z,98.90
2018-09-06T16:55:55.274Z,99.30
2018-09-06T16:58:23.744Z,98.20
2018-09-06T17:00:53.653Z,97.70
2018-09-06T17:03:22.079Z,96.20
2018-09-06T17:05:51.050Z,96.80
2018-09-06T17:08:19.508Z,96.10
2018-09-06T17:10:48.166Z,95.30
2018-09-06T17:13:16.817Z,97.40
2018-09-06T17:15:46.220Z,96.50
2018-09-06T17:18:14.560Z,96.90
2018-09-06T17:20:43.955Z,97.10
2018-09-06T17:23:16.296Z,97.40
2018-09-06T17:25:44.990Z,96.80
2018-09-06T17:28:13.378Z,96.00
2018-09-06T17:30:42.007Z,97.00
2018-09-06T17:33:19.634Z,97.00
2018-09-06T17:35:48.855Z,97.70
2018-09-06T17:38:17.538Z,97.30
2018-09-06T17:40:46.258Z,97.70
2018-09-06T17:43:14.670Z,97.00
2018-09-06T17:45:43.939Z,96.80
2018-09-06T17:48:12.518Z,96.10
2018-09-06T17:50:40.919Z,96.50
2018-09-06T17:53:09.398Z,97.00
2018-09-06T17:55:38.323Z,97.60
2018-09-06T17:58:07.147Z,97.20
2018-09-06T18:00:41.051Z,96.70
2018-09-06T18:03:09.774Z,96.80
2018-09-06T18:05:38.227Z,97.70
2018-09-06T18:08:06.614Z,98.50
2018-09-06T18:10:35.275Z,97.70
2018-09-06T18:13:03.835Z,98.20
2018-09-06T18:15:32.481Z,98.50
2018-09-06T18:18:01.204Z,98.70
2018-09-06T18:20:31.189Z,98.20
2018-09-06T18:22:59.607Z,98.10
2018-09-06T18:25:28.355Z,98.90
2018-09-06T18:27:56.758Z,99.00
2018-09-06T18:30:25.239Z,99.10
2018-09-06T18:32:53.799Z,98.90
2018-09-06T18:35:22.261Z,98.90
2018-09-06T18:37:50.610Z,98.30
2018-09-06T18:40:19.686Z,97.70
2018-09-06T18:42:48.328Z,98.00
2018-09-06T18:45:16.982Z,97.50
2018-09-06T18:47:45.382Z,95.80
2018-09-06T18:50:14.100Z,96.10
2018-09-06T18:52:42.732Z,97.60
2018-09-06T18:55:11.198Z,96.70
2018-09-06T18:57:39.967Z,96.40
2018-09-06T19:00:08.343Z,96.60
2018-09-06T19:02:36.986Z,95.90
2018-09-06T19:05:10.312Z,96.90
2018-09-06T19:07:38.951Z,98.00
2018-09-06T19:10:07.411Z,97.90
2018-09-06T19:12:36.124Z,97.00
2018-09-06T19:15:04.531Z,97.60
2018-09-06T19:17:32.914Z,96.90
2018-09-06T19:20:01.658Z,97.30
2018-09-06T19:22:30.402Z,97.40
2018-09-06T19:24:59.301Z,97.20
2018-09-06T19:27:27.851Z,97.80
2018-09-06T19:29:56.788Z,97.60
2018-09-06T19:32:25.226Z,96.80
2018-09-06T19:34:55.484Z,97.30
2018-09-06T19:37:24.182Z,97.00
2018-09-06T19:39:53.179Z,96.10
2018-09-06T19:42:21.658Z,96.20
2018-09-06T19:44:50.923Z,96.40
2018-09-06T19:47:20.224Z,96.90
2018-09-06T19:49:48.699Z,97.10
2018-09-06T19:52:17.110Z,97.40
2018-09-06T19:54:45.718Z,98.30
2018-09-06T19:57:14.140Z,97.00
2018-09-06T19:59:42.629Z,96.90
2018-09-06T20:02:12.208Z,97.20
2018-09-06T20:04:40.822Z,97.30
2018-09-06T20:07:09.446Z,97.30
2018-09-06T20:09:38.515Z,98.00
2018-09-06T20:12:07.184Z,97.30
2018-09-06T20:14:35.790Z,96.50
2018-09-06T20:17:04.759Z,96.60
2018-09-06T20:19:33.314Z,96.90
2018-09-06T20:22:01.726Z,97.70
2018-09-06T20:24:30.403Z,98.20
2018-09-06T20:26:58.894Z,98.30
2018-09-06T20:29:27.327Z,98.80
2018-09-06T20:31:56.279Z,98.20
2018-09-06T20:34:24.691Z,98.80
2018-09-06T20:36:53.579Z,97.70
2018-09-06T20:39:21.944Z,97.70
2018-09-06T20:41:51.574Z,98.60
2018-09-06T20:44:19.952Z,97.40
2018-09-06T20:46:48.378Z,98.00
2018-09-06T20:49:16.862Z,98.90
2018-09-06T20:51:45.303Z,98.40
2018-09-06T20:54:14.124Z,99.00
2018-09-06T20:56:42.556Z,98.70
2018-09-06T20:59:11.077Z,98.70
2018-09-06T21:01:39.547Z,98.20
2018-09-06T21:04:07.947Z,98.60
2018-09-06T21:06:36.987Z,98.90
2018-09-06T21:09:06.755Z,98.90
2018-09-06T21:11:35.212Z,99.10
2018-09-06T21:14:03.626Z,97.80
2018-09-06T21:16:32.150Z,98.00
2018-09-06T21:19:00.560Z,98.30
2018-09-06T21:21:28.980Z,99.30
2018-09-06T21:23:57.430Z,98.40
2018-09-06T21:26:26.406Z,98.30
2018-09-06T21:28:55.054Z,98.70
2018-09-06T21:31:24.052Z,98.80
2018-09-06T21:33:52.431Z,98.80
2018-09-06T21:36:21.098Z,98.20
2018-09-06T21:38:49.470Z,98.70
2018-09-06T21:41:17.877Z,99.70
2018-09-06T21:43:46.539Z,98.80
2018-09-06T21:46:15.262Z,98.10
2018-09-06T21:48:44.194Z,98.10
2018-09-06T21:51:12.921Z,98.40
2018-09-06T21:53:41.619Z,98.70
2018-09-06T21:56:09.998Z,99.10
2018-09-06T21:58:38.430Z,98.10
2018-09-06T22:01:07.082Z,98.20
2018-09-06T22:04:08.822Z,98.40
2018-09-06T22:06:38.072Z,98.50
2018-09-06T22:09:09.547Z,98.70
2018-09-06T22:11:38.962Z,98.90
2018-09-06T22:14:07.506Z,99.40
2018-09-06T22:16:36.159Z,98.40
2018-09-06T22:19:05.176Z,98.20
2018-09-06T22:21:33.587Z,98.40
2018-09-06T22:24:02.334Z,98.40
2018-09-06T22:26:31.011Z,98.30
2018-09-06T22:28:59.635Z,98.70
2018-09-06T22:31:28.035Z,98.90
2018-09-06T22:33:56.778Z,99.00
2018-09-06T22:36:25.760Z,99.30
2018-09-06T22:38:54.738Z,99.70
2018-09-06T22:41:23.418Z,99.10
2018-09-06T22:43:51.786Z,99.30
2018-09-06T22:46:20.183Z,99.50
2018-09-06T22:48:48.661Z,99.80
2018-09-06T22:51:17.295Z,99.90
2018-09-06T22:53:45.735Z,99.90
2018-09-06T22:56:14.463Z,99.90
2018-09-06T22:58:42.811Z,99.90
2018-09-06T23:01:11.634Z,99.90
2018-09-06T23:03:42.254Z,99.90
2018-09-06T23:06:10.685Z,99.90
2018-09-06T23:08:39.110Z,99.90
2018-09-06T23:11:08.159Z,99.90
2018-09-06T23:13:37.004Z,99.90
2018-09-06T23:16:05.673Z,99.90
2018-09-06T23:18:34.318Z,99.90
2018-09-06T23:21:02.942Z,99.90
2018-09-06T23:23:31.530Z,99.90
2018-09-06T23:25:59.886Z,99.90
2018-09-06T23:28:28.518Z,99.90
2018-09-06T23:30:57.186Z,99.90
2018-09-06T23:33:25.951Z,99.90
2018-09-06T23:35:54.334Z,99.90
2018-09-06T23:38:23.255Z,99.90
2018-09-06T23:40:54.638Z,99.90
2018-09-06T23:43:25.219Z,99.90
2018-09-06T23:45:55.298Z,99.90
2018-09-06T23:48:25.345Z,99.90
2018-09-06T23:50:54.614Z,99.90
2018-09-06T23:53:23.486Z,99.90
2018-09-06T23:55:52.177Z,99.90
2018-09-06T23:58:20.535Z,99.90
